sensor_id;sensor_type;location;lat;lon;timestamp;temperature;humidity
16929;DHT22;8581;47.334;11.190;2023-12-28T00:00:35;-2.10;99.90
16929;DHT22;8581;47.334;11.190;2023-12-28T00:03:06;-2.20;99.90
16929;DHT22;8581;47.334;11.190;2023-12-28T00:05:38;-2.00;99.90
16929;DHT22;8581;47.334;11.190;2023-12-28T00:08:10;-2.10;99.90
16929;DHT22;8581;47.334;11.190;2023-12-28T00:10:41;-2.20;99.90
16929;DHT22;8581;47.334;11.190;2023-12-28T00:13:13;-2.20;99.90
16929;DHT22;8581;47.334;11.190;2023-12-28T00:15:45;-2.00;99.90
16929;DHT22;8581;47.334;11.190;2023-12-28T00:18:16;-2.00;99.90
16929;DHT22;8581;47.334;11.190;2023-12-28T00:20:48;-2.10;99.90
16929;DHT22;8581;47.334;11.190;2023-12-28T00:23:19;-2.20;99.90
16929;DHT22;8581;47.334;11.190;2023-12-28T00:25:51;-2.10;99.90
16929;DHT22;8581;47.334;11.190;2023-12-28T00:28:23;-2.10;99.90
16929;DHT22;8581;47.334;11.190;2023-12-28T00:30:54;-2.20;99.90
16929;DHT22;8581;47.334;11.190;2023-12-28T00:33:26;-2.20;99.90
16929;DHT22;8581;47.334;11.190;2023-12-28T00:35:57;-2.30;99.90
16929;DHT22;8581;47.334;11.190;2023-12-28T00:38:29;-2.40;99.90
16929;DHT22;8581;47.334;11.190;2023-12-28T00:41:01;-2.50;99.90
16929;DHT22;8581;47.334;11.190;2023-12-28T00:43:32;-2.50;99.90
16929;DHT22;8581;47.334;11.190;2023-12-28T00:46:04;-2.40;99.90
16929;DHT22;8581;47.334;11.190;2023-12-28T00:48:36;-2.40;99.90
16929;DHT22;8581;47.334;11.190;2023-12-28T00:51:07;-2.30;99.90
16929;DHT22;8581;47.334;11.190;2023-12-28T00:53:39;-2.30;99.90
16929;DHT22;8581;47.334;11.190;2023-12-28T00:56:10;-2.40;99.90
16929;DHT22;8581;47.334;11.190;2023-12-28T00:58:42;-2.50;99.90
16929;DHT22;8581;47.334;11.190;2023-12-28T01:01:14;-2.60;99.90
16929;DHT22;8581;47.334;11.190;2023-12-28T01:03:45;-2.60;99.90
16929;DHT22;8581;47.334;11.190;2023-12-28T01:06:17;-2.60;99.90
16929;DHT22;8581;47.334;11.190;2023-12-28T01:08:49;-2.50;99.90
16929;DHT22;8581;47.334;11.190;2023-12-28T01:11:20;-2.60;99.90
16929;DHT22;8581;47.334;11.190;2023-12-28T01:13:53;-2.60;99.90
16929;DHT22;8581;47.334;11.190;2023-12-28T01:16:23;-2.40;99.90
16929;DHT22;8581;47.334;11.190;2023-12-28T01:18:55;-2.50;99.90
16929;DHT22;8581;47.334;11.190;2023-12-28T01:21:27;-2.30;99.90
16929;DHT22;8581;47.334;11.190;2023-12-28T01:23:58;-2.40;99.90
16929;DHT22;8581;47.334;11.190;2023-12-28T01:26:30;-2.40;99.90
16929;DHT22;8581;47.334;11.190;2023-12-28T01:29:02;-2.20;99.90
16929;DHT22;8581;47.334;11.190;2023-12-28T01:31:33;-2.30;99.90
16929;DHT22;8581;47.334;11.190;2023-12-28T01:34:05;-2.20;99.90
16929;DHT22;8581;47.334;11.190;2023-12-28T01:36:36;-2.20;99.90
16929;DHT22;8581;47.334;11.190;2023-12-28T01:39:08;-2.30;99.90
16929;DHT22;8581;47.334;11.190;2023-12-28T01:41:40;-2.30;99.90
16929;DHT22;8581;47.334;11.190;2023-12-28T01:44:11;-2.50;99.90
16929;DHT22;8581;47.334;11.190;2023-12-28T01:46:43;-2.30;99.90
16929;DHT22;8581;47.334;11.190;2023-12-28T01:49:15;-2.50;99.90
16929;DHT22;8581;47.334;11.190;2023-12-28T01:51:46;-2.70;99.90
16929;DHT22;8581;47.334;11.190;2023-12-28T01:54:18;-2.70;99.90
16929;DHT22;8581;47.334;11.190;2023-12-28T01:56:50;-2.60;99.90
16929;DHT22;8581;47.334;11.190;2023-12-28T01:59:21;-2.50;99.90
16929;DHT22;8581;47.334;11.190;2023-12-28T02:01:53;-2.60;99.90
16929;DHT22;8581;47.334;11.190;2023-12-28T02:04:25;-2.70;99.90
16929;DHT22;8581;47.334;11.190;2023-12-28T02:06:57;-2.80;99.90
16929;DHT22;8581;47.334;11.190;2023-12-28T02:09:28;-2.90;99.90
16929;DHT22;8581;47.334;11.190;2023-12-28T02:12:00;-2.80;99.90
16929;DHT22;8581;47.334;11.190;2023-12-28T02:14:31;-2.80;99.90
16929;DHT22;8581;47.334;11.190;2023-12-28T02:17:06;-2.90;99.90
16929;DHT22;8581;47.334;11.190;2023-12-28T02:19:44;-2.80;99.90
16929;DHT22;8581;47.334;11.190;2023-12-28T02:22:13;-2.70;99.90
16929;DHT22;8581;47.334;11.190;2023-12-28T02:24:56;-2.70;99.90
16929;DHT22;8581;47.334;11.190;2023-12-28T02:27:26;-2.80;99.90
16929;DHT22;8581;47.334;11.190;2023-12-28T02:29:57;-2.90;99.90
16929;DHT22;8581;47.334;11.190;2023-12-28T02:35:24;-2.90;99.90
16929;DHT22;8581;47.334;11.190;2023-12-28T02:37:56;-3.00;99.90
16929;DHT22;8581;47.334;11.190;2023-12-28T02:40:26;-3.00;99.90
16929;DHT22;8581;47.334;11.190;2023-12-28T02:42:58;-3.10;99.90
16929;DHT22;8581;47.334;11.190;2023-12-28T02:45:30;-3.20;99.90
16929;DHT22;8581;47.334;11.190;2023-12-28T02:48:02;-3.20;99.90
16929;DHT22;8581;47.334;11.190;2023-12-28T02:50:33;-3.30;99.90
16929;DHT22;8581;47.334;11.190;2023-12-28T02:53:05;-3.30;99.90
16929;DHT22;8581;47.334;11.190;2023-12-28T02:55:36;-3.10;99.90
16929;DHT22;8581;47.334;11.190;2023-12-28T02:58:08;-3.20;99.90
16929;DHT22;8581;47.334;11.190;2023-12-28T03:00:40;-3.10;99.90
16929;DHT22;8581;47.334;11.190;2023-12-28T03:03:11;-3.10;99.90
16929;DHT22;8581;47.334;11.190;2023-12-28T03:05:43;-3.20;99.90
16929;DHT22;8581;47.334;11.190;2023-12-28T03:08:15;-3.30;99.90
16929;DHT22;8581;47.334;11.190;2023-12-28T03:10:46;-3.20;99.90
16929;DHT22;8581;47.334;11.190;2023-12-28T03:13:18;-3.10;99.90
16929;DHT22;8581;47.334;11.190;2023-12-28T03:15:49;-3.00;99.90
16929;DHT22;8581;47.334;11.190;2023-12-28T03:18:21;-3.00;99.90
16929;DHT22;8581;47.334;11.190;2023-12-28T03:20:53;-3.00;99.90
16929;DHT22;8581;47.334;11.190;2023-12-28T03:23:24;-2.90;99.90
16929;DHT22;8581;47.334;11.190;2023-12-28T03:25:56;-3.00;99.90
16929;DHT22;8581;47.334;11.190;2023-12-28T03:28:27;-2.90;99.90
16929;DHT22;8581;47.334;11.190;2023-12-28T03:31:01;-3.00;99.90
16929;DHT22;8581;47.334;11.190;2023-12-28T03:33:31;-3.10;99.90
16929;DHT22;8581;47.334;11.190;2023-12-28T03:36:03;-3.10;99.90
16929;DHT22;8581;47.334;11.190;2023-12-28T03:38:34;-3.00;99.90
16929;DHT22;8581;47.334;11.190;2023-12-28T03:41:15;-3.00;99.90
16929;DHT22;8581;47.334;11.190;2023-12-28T03:43:37;-3.10;99.90
16929;DHT22;8581;47.334;11.190;2023-12-28T03:46:09;-3.00;99.90
16929;DHT22;8581;47.334;11.190;2023-12-28T03:48:41;-3.10;99.90
16929;DHT22;8581;47.334;11.190;2023-12-28T03:51:14;-3.20;99.90
16929;DHT22;8581;47.334;11.190;2023-12-28T03:53:45;-3.10;99.90
16929;DHT22;8581;47.334;11.190;2023-12-28T03:56:26;-3.00;99.90
16929;DHT22;8581;47.334;11.190;2023-12-28T03:58:57;-2.90;99.90
16929;DHT22;8581;47.334;11.190;2023-12-28T04:01:29;-3.00;99.90
16929;DHT22;8581;47.334;11.190;2023-12-28T04:04:01;-2.90;99.90
16929;DHT22;8581;47.334;11.190;2023-12-28T04:06:32;-3.00;99.90
16929;DHT22;8581;47.334;11.190;2023-12-28T04:09:04;-3.00;99.90
16929;DHT22;8581;47.334;11.190;2023-12-28T04:11:35;-3.10;99.90
16929;DHT22;8581;47.334;11.190;2023-12-28T04:14:07;-3.20;99.90
16929;DHT22;8581;47.334;11.190;2023-12-28T04:16:39;-3.40;99.90
16929;DHT22;8581;47.334;11.190;2023-12-28T04:19:10;-3.40;99.90
16929;DHT22;8581;47.334;11.190;2023-12-28T04:21:43;-3.40;99.90
16929;DHT22;8581;47.334;11.190;2023-12-28T04:24:14;-3.30;99.90
16929;DHT22;8581;47.334;11.190;2023-12-28T04:26:46;-3.40;99.90
16929;DHT22;8581;47.334;11.190;2023-12-28T04:29:18;-3.30;99.90
16929;DHT22;8581;47.334;11.190;2023-12-28T04:31:49;-3.30;99.90
16929;DHT22;8581;47.334;11.190;2023-12-28T04:34:21;-3.20;99.90
16929;DHT22;8581;47.334;11.190;2023-12-28T04:36:52;-3.20;99.90
16929;DHT22;8581;47.334;11.190;2023-12-28T04:39:24;-3.40;99.90
16929;DHT22;8581;47.334;11.190;2023-12-28T04:41:56;-3.20;99.90
16929;DHT22;8581;47.334;11.190;2023-12-28T04:44:37;-3.10;99.90
16929;DHT22;8581;47.334;11.190;2023-12-28T04:47:05;-3.10;99.90
16929;DHT22;8581;47.334;11.190;2023-12-28T04:49:36;-3.10;99.90
16929;DHT22;8581;47.334;11.190;2023-12-28T04:52:08;-3.10;99.90
16929;DHT22;8581;47.334;11.190;2023-12-28T04:54:41;-3.10;99.90
16929;DHT22;8581;47.334;11.190;2023-12-28T04:57:12;-3.10;99.90
16929;DHT22;8581;47.334;11.190;2023-12-28T04:59:44;-3.00;99.90
16929;DHT22;8581;47.334;11.190;2023-12-28T05:02:16;-3.00;99.90
16929;DHT22;8581;47.334;11.190;2023-12-28T05:04:47;-3.20;99.90
16929;DHT22;8581;47.334;11.190;2023-12-28T05:07:19;-3.10;99.90
16929;DHT22;8581;47.334;11.190;2023-12-28T05:09:50;-3.10;99.90
16929;DHT22;8581;47.334;11.190;2023-12-28T05:12:22;-3.00;99.90
16929;DHT22;8581;47.334;11.190;2023-12-28T05:14:54;-3.10;99.90
16929;DHT22;8581;47.334;11.190;2023-12-28T05:17:25;-3.20;99.90
16929;DHT22;8581;47.334;11.190;2023-12-28T05:19:57;-3.20;99.90
16929;DHT22;8581;47.334;11.190;2023-12-28T05:22:28;-3.30;99.90
16929;DHT22;8581;47.334;11.190;2023-12-28T05:25:00;-3.20;99.90
16929;DHT22;8581;47.334;11.190;2023-12-28T05:27:32;-3.10;99.90
16929;DHT22;8581;47.334;11.190;2023-12-28T05:30:04;-3.00;99.90
16929;DHT22;8581;47.334;11.190;2023-12-28T05:32:36;-3.10;99.90
16929;DHT22;8581;47.334;11.190;2023-12-28T05:35:08;-3.10;99.90
16929;DHT22;8581;47.334;11.190;2023-12-28T05:37:39;-3.10;99.90
16929;DHT22;8581;47.334;11.190;2023-12-28T05:40:11;-3.20;99.90
16929;DHT22;8581;47.334;11.190;2023-12-28T05:42:43;-3.20;99.90
16929;DHT22;8581;47.334;11.190;2023-12-28T05:45:14;-3.20;99.90
16929;DHT22;8581;47.334;11.190;2023-12-28T05:47:46;-3.30;99.90
16929;DHT22;8581;47.334;11.190;2023-12-28T05:50:18;-3.20;99.90
16929;DHT22;8581;47.334;11.190;2023-12-28T05:52:49;-3.20;99.90
16929;DHT22;8581;47.334;11.190;2023-12-28T05:55:21;-3.30;99.90
16929;DHT22;8581;47.334;11.190;2023-12-28T05:57:52;-3.40;99.90
16929;DHT22;8581;47.334;11.190;2023-12-28T06:00:24;-3.30;99.90
16929;DHT22;8581;47.334;11.190;2023-12-28T06:02:56;-3.30;99.90
16929;DHT22;8581;47.334;11.190;2023-12-28T06:05:27;-3.20;99.90
16929;DHT22;8581;47.334;11.190;2023-12-28T06:07:59;-3.20;99.90
16929;DHT22;8581;47.334;11.190;2023-12-28T06:10:30;-3.00;99.90
16929;DHT22;8581;47.334;11.190;2023-12-28T06:13:02;-3.10;99.90
16929;DHT22;8581;47.334;11.190;2023-12-28T06:15:34;-3.10;99.90
16929;DHT22;8581;47.334;11.190;2023-12-28T06:18:05;-3.20;99.90
16929;DHT22;8581;47.334;11.190;2023-12-28T06:20:37;-3.20;99.90
16929;DHT22;8581;47.334;11.190;2023-12-28T06:23:09;-3.10;99.90
16929;DHT22;8581;47.334;11.190;2023-12-28T06:25:40;-2.90;99.90
16929;DHT22;8581;47.334;11.190;2023-12-28T06:28:12;-2.70;99.90
16929;DHT22;8581;47.334;11.190;2023-12-28T06:30:44;-2.80;99.90
16929;DHT22;8581;47.334;11.190;2023-12-28T06:33:15;-2.90;99.90
16929;DHT22;8581;47.334;11.190;2023-12-28T06:35:47;-3.10;99.90
16929;DHT22;8581;47.334;11.190;2023-12-28T06:38:18;-3.10;99.90
16929;DHT22;8581;47.334;11.190;2023-12-28T06:40:50;-3.10;99.90
16929;DHT22;8581;47.334;11.190;2023-12-28T06:43:22;-3.10;99.90
16929;DHT22;8581;47.334;11.190;2023-12-28T06:45:53;-3.10;99.90
16929;DHT22;8581;47.334;11.190;2023-12-28T06:48:25;-2.90;99.90
16929;DHT22;8581;47.334;11.190;2023-12-28T06:50:57;-3.00;99.90
16929;DHT22;8581;47.334;11.190;2023-12-28T06:53:28;-3.10;99.90
16929;DHT22;8581;47.334;11.190;2023-12-28T06:56:00;-3.00;99.90
16929;DHT22;8581;47.334;11.190;2023-12-28T06:58:31;-3.10;99.90
16929;DHT22;8581;47.334;11.190;2023-12-28T07:01:03;-3.20;99.90
16929;DHT22;8581;47.334;11.190;2023-12-28T07:03:35;-2.40;99.90
16929;DHT22;8581;47.334;11.190;2023-12-28T07:06:06;-3.40;99.90
16929;DHT22;8581;47.334;11.190;2023-12-28T07:08:38;-3.30;99.90
16929;DHT22;8581;47.334;11.190;2023-12-28T07:11:10;-3.40;99.90
16929;DHT22;8581;47.334;11.190;2023-12-28T07:13:41;-3.40;99.90
16929;DHT22;8581;47.334;11.190;2023-12-28T07:16:13;-3.40;99.90
16929;DHT22;8581;47.334;11.190;2023-12-28T07:18:45;-3.40;99.90
16929;DHT22;8581;47.334;11.190;2023-12-28T07:21:16;-3.20;99.90
16929;DHT22;8581;47.334;11.190;2023-12-28T07:23:48;-3.00;99.90
16929;DHT22;8581;47.334;11.190;2023-12-28T07:26:19;-2.90;99.90
16929;DHT22;8581;47.334;11.190;2023-12-28T07:28:51;-3.00;99.90
16929;DHT22;8581;47.334;11.190;2023-12-28T07:31:24;-3.00;99.90
16929;DHT22;8581;47.334;11.190;2023-12-28T07:33:55;-3.00;99.90
16929;DHT22;8581;47.334;11.190;2023-12-28T07:36:27;-2.90;99.90
16929;DHT22;8581;47.334;11.190;2023-12-28T07:38:59;-2.90;99.90
16929;DHT22;8581;47.334;11.190;2023-12-28T07:41:30;-2.90;99.90
16929;DHT22;8581;47.334;11.190;2023-12-28T07:44:02;-2.90;99.90
16929;DHT22;8581;47.334;11.190;2023-12-28T07:46:33;-2.60;99.90
16929;DHT22;8581;47.334;11.190;2023-12-28T07:49:05;-2.50;99.90
16929;DHT22;8581;47.334;11.190;2023-12-28T07:51:37;-2.40;99.90
16929;DHT22;8581;47.334;11.190;2023-12-28T07:54:08;-2.40;99.90
16929;DHT22;8581;47.334;11.190;2023-12-28T07:56:40;-2.50;99.90
16929;DHT22;8581;47.334;11.190;2023-12-28T07:59:11;-2.40;99.90
16929;DHT22;8581;47.334;11.190;2023-12-28T08:01:43;-2.30;99.90
16929;DHT22;8581;47.334;11.190;2023-12-28T08:04:15;-2.40;99.90
16929;DHT22;8581;47.334;11.190;2023-12-28T08:06:46;-2.00;99.90
16929;DHT22;8581;47.334;11.190;2023-12-28T08:09:18;-2.10;99.90
16929;DHT22;8581;47.334;11.190;2023-12-28T08:11:50;-2.20;99.90
16929;DHT22;8581;47.334;11.190;2023-12-28T08:14:21;-2.30;99.90
16929;DHT22;8581;47.334;11.190;2023-12-28T08:16:53;-2.30;99.90
16929;DHT22;8581;47.334;11.190;2023-12-28T08:19:24;-2.20;99.90
16929;DHT22;8581;47.334;11.190;2023-12-28T08:21:56;-2.30;99.90
16929;DHT22;8581;47.334;11.190;2023-12-28T08:24:28;-2.30;99.90
16929;DHT22;8581;47.334;11.190;2023-12-28T08:26:59;-2.00;99.90
16929;DHT22;8581;47.334;11.190;2023-12-28T08:29:31;-1.50;99.90
16929;DHT22;8581;47.334;11.190;2023-12-28T08:32:03;-0.90;99.90
16929;DHT22;8581;47.334;11.190;2023-12-28T08:34:35;-0.50;99.90
16929;DHT22;8581;47.334;11.190;2023-12-28T08:37:06;-0.10;99.90
16929;DHT22;8581;47.334;11.190;2023-12-28T08:39:39;-0.10;99.90
16929;DHT22;8581;47.334;11.190;2023-12-28T08:42:10;0.30;99.90
16929;DHT22;8581;47.334;11.190;2023-12-28T08:44:41;0.70;99.90
16929;DHT22;8581;47.334;11.190;2023-12-28T08:47:13;1.00;99.90
16929;DHT22;8581;47.334;11.190;2023-12-28T08:49:44;1.50;99.90
16929;DHT22;8581;47.334;11.190;2023-12-28T08:52:16;1.70;99.90
16929;DHT22;8581;47.334;11.190;2023-12-28T08:54:48;2.00;99.90
16929;DHT22;8581;47.334;11.190;2023-12-28T08:57:19;2.60;99.90
16929;DHT22;8581;47.334;11.190;2023-12-28T08:59:51;2.90;99.90
16929;DHT22;8581;47.334;11.190;2023-12-28T09:02:23;3.10;99.90
16929;DHT22;8581;47.334;11.190;2023-12-28T09:04:54;3.80;99.90
16929;DHT22;8581;47.334;11.190;2023-12-28T09:07:26;4.10;99.90
16929;DHT22;8581;47.334;11.190;2023-12-28T09:09:57;4.40;99.90
16929;DHT22;8581;47.334;11.190;2023-12-28T09:12:29;4.60;99.90
16929;DHT22;8581;47.334;11.190;2023-12-28T09:15:01;4.90;99.90
16929;DHT22;8581;47.334;11.190;2023-12-28T09:17:33;5.30;99.90
16929;DHT22;8581;47.334;11.190;2023-12-28T09:20:05;5.40;99.90
16929;DHT22;8581;47.334;11.190;2023-12-28T09:22:37;5.50;99.90
16929;DHT22;8581;47.334;11.190;2023-12-28T09:25:09;5.80;99.90
16929;DHT22;8581;47.334;11.190;2023-12-28T09:27:40;6.70;99.90
16929;DHT22;8581;47.334;11.190;2023-12-28T09:30:13;6.80;99.90
16929;DHT22;8581;47.334;11.190;2023-12-28T09:32:44;7.10;99.90
16929;DHT22;8581;47.334;11.190;2023-12-28T09:35:16;7.20;99.90
16929;DHT22;8581;47.334;11.190;2023-12-28T09:37:48;7.10;99.90
16929;DHT22;8581;47.334;11.190;2023-12-28T09:40:19;7.50;99.90
16929;DHT22;8581;47.334;11.190;2023-12-28T09:43:09;7.70;99.90
16929;DHT22;8581;47.334;11.190;2023-12-28T09:45:38;7.90;99.90
16929;DHT22;8581;47.334;11.190;2023-12-28T09:48:10;8.10;99.90
16929;DHT22;8581;47.334;11.190;2023-12-28T09:50:41;8.40;98.40
16929;DHT22;8581;47.334;11.190;2023-12-28T09:53:13;8.60;96.60
16929;DHT22;8581;47.334;11.190;2023-12-28T09:55:45;8.60;96.30
16929;DHT22;8581;47.334;11.190;2023-12-28T09:58:17;8.80;96.40
16929;DHT22;8581;47.334;11.190;2023-12-28T10:00:49;8.90;99.90
16929;DHT22;8581;47.334;11.190;2023-12-28T10:03:20;8.90;99.90
16929;DHT22;8581;47.334;11.190;2023-12-28T10:05:51;9.10;99.90
16929;DHT22;8581;47.334;11.190;2023-12-28T10:08:23;9.70;96.20
16929;DHT22;8581;47.334;11.190;2023-12-28T10:10:55;9.70;96.10
16929;DHT22;8581;47.334;11.190;2023-12-28T10:13:26;9.60;96.40
16929;DHT22;8581;47.334;11.190;2023-12-28T10:15:58;9.60;95.40
16929;DHT22;8581;47.334;11.190;2023-12-28T10:18:30;9.80;94.10
16929;DHT22;8581;47.334;11.190;2023-12-28T10:21:01;9.80;95.10
16929;DHT22;8581;47.334;11.190;2023-12-28T10:23:33;9.70;94.50
16929;DHT22;8581;47.334;11.190;2023-12-28T10:26:05;9.60;96.50
16929;DHT22;8581;47.334;11.190;2023-12-28T10:28:37;9.20;99.90
16929;DHT22;8581;47.334;11.190;2023-12-28T10:31:08;9.20;96.00
16929;DHT22;8581;47.334;11.190;2023-12-28T10:33:41;9.50;95.70
16929;DHT22;8581;47.334;11.190;2023-12-28T10:36:12;9.70;96.10
16929;DHT22;8581;47.334;11.190;2023-12-28T10:38:43;9.50;96.70
16929;DHT22;8581;47.334;11.190;2023-12-28T10:41:15;9.50;95.40
16929;DHT22;8581;47.334;11.190;2023-12-28T10:43:53;9.70;94.10
16929;DHT22;8581;47.334;11.190;2023-12-28T10:46:26;9.50;94.40
16929;DHT22;8581;47.334;11.190;2023-12-28T10:48:59;9.30;93.10
16929;DHT22;8581;47.334;11.190;2023-12-28T10:51:29;9.30;92.60
16929;DHT22;8581;47.334;11.190;2023-12-28T10:54:20;9.30;95.20
16929;DHT22;8581;47.334;11.190;2023-12-28T10:56:53;9.50;93.80
16929;DHT22;8581;47.334;11.190;2023-12-28T10:59:39;9.70;93.40
16929;DHT22;8581;47.334;11.190;2023-12-28T11:02:11;10.10;96.00
16929;DHT22;8581;47.334;11.190;2023-12-28T11:04:50;10.10;93.90
16929;DHT22;8581;47.334;11.190;2023-12-28T11:07:22;9.90;93.30
16929;DHT22;8581;47.334;11.190;2023-12-28T11:09:54;9.90;94.60
16929;DHT22;8581;47.334;11.190;2023-12-28T11:12:25;10.00;96.70
16929;DHT22;8581;47.334;11.190;2023-12-28T11:14:59;10.10;96.20
16929;DHT22;8581;47.334;11.190;2023-12-28T11:17:30;9.90;96.30
16929;DHT22;8581;47.334;11.190;2023-12-28T11:20:03;9.90;96.30
16929;DHT22;8581;47.334;11.190;2023-12-28T11:22:37;10.20;97.90
16929;DHT22;8581;47.334;11.190;2023-12-28T11:25:18;10.60;93.00
16929;DHT22;8581;47.334;11.190;2023-12-28T11:27:49;10.80;90.60
16929;DHT22;8581;47.334;11.190;2023-12-28T11:30:21;10.80;90.30
16929;DHT22;8581;47.334;11.190;2023-12-28T11:32:55;10.80;93.70
16929;DHT22;8581;47.334;11.190;2023-12-28T11:35:31;11.20;91.30
16929;DHT22;8581;47.334;11.190;2023-12-28T11:37:56;11.10;89.70
16929;DHT22;8581;47.334;11.190;2023-12-28T11:40:28;11.00;90.20
16929;DHT22;8581;47.334;11.190;2023-12-28T11:43:00;10.90;88.60
16929;DHT22;8581;47.334;11.190;2023-12-28T11:45:31;11.00;90.10
16929;DHT22;8581;47.334;11.190;2023-12-28T11:48:03;10.90;91.50
16929;DHT22;8581;47.334;11.190;2023-12-28T11:50:35;10.70;92.50
16929;DHT22;8581;47.334;11.190;2023-12-28T11:53:07;10.70;93.40
16929;DHT22;8581;47.334;11.190;2023-12-28T11:55:38;10.50;91.90
16929;DHT22;8581;47.334;11.190;2023-12-28T11:58:10;10.40;90.90
16929;DHT22;8581;47.334;11.190;2023-12-28T12:00:42;10.40;90.10
16929;DHT22;8581;47.334;11.190;2023-12-28T12:03:13;10.10;90.00
16929;DHT22;8581;47.334;11.190;2023-12-28T12:05:45;10.00;90.40
16929;DHT22;8581;47.334;11.190;2023-12-28T12:08:16;10.10;89.70
16929;DHT22;8581;47.334;11.190;2023-12-28T12:10:59;10.10;89.60
16929;DHT22;8581;47.334;11.190;2023-12-28T12:13:20;10.20;92.70
16929;DHT22;8581;47.334;11.190;2023-12-28T12:15:52;10.80;88.00
16929;DHT22;8581;47.334;11.190;2023-12-28T12:18:24;10.80;91.60
16929;DHT22;8581;47.334;11.190;2023-12-28T12:20:55;11.00;93.20
16929;DHT22;8581;47.334;11.190;2023-12-28T12:23:27;11.70;85.40
16929;DHT22;8581;47.334;11.190;2023-12-28T12:25:58;11.90;82.60
16929;DHT22;8581;47.334;11.190;2023-12-28T12:28:30;11.60;90.00
16929;DHT22;8581;47.334;11.190;2023-12-28T12:31:02;11.60;89.20
16929;DHT22;8581;47.334;11.190;2023-12-28T12:33:34;11.10;92.70
16929;DHT22;8581;47.334;11.190;2023-12-28T12:36:06;10.80;92.00
16929;DHT22;8581;47.334;11.190;2023-12-28T12:38:37;10.60;93.90
16929;DHT22;8581;47.334;11.190;2023-12-28T12:41:10;10.50;95.20
16929;DHT22;8581;47.334;11.190;2023-12-28T12:43:41;10.40;96.10
16929;DHT22;8581;47.334;11.190;2023-12-28T12:46:13;10.00;93.30
16929;DHT22;8581;47.334;11.190;2023-12-28T12:48:53;9.90;92.50
16929;DHT22;8581;47.334;11.190;2023-12-28T12:51:17;9.90;93.40
16929;DHT22;8581;47.334;11.190;2023-12-28T12:53:48;9.70;93.40
16929;DHT22;8581;47.334;11.190;2023-12-28T12:56:26;9.60;95.90
16929;DHT22;8581;47.334;11.190;2023-12-28T12:58:57;9.30;95.50
16929;DHT22;8581;47.334;11.190;2023-12-28T13:01:29;9.20;94.30
16929;DHT22;8581;47.334;11.190;2023-12-28T13:04:00;9.30;94.80
16929;DHT22;8581;47.334;11.190;2023-12-28T13:06:32;8.70;96.00
16929;DHT22;8581;47.334;11.190;2023-12-28T13:09:04;8.50;95.90
16929;DHT22;8581;47.334;11.190;2023-12-28T13:11:35;8.30;96.50
16929;DHT22;8581;47.334;11.190;2023-12-28T13:14:07;8.50;96.90
16929;DHT22;8581;47.334;11.190;2023-12-28T13:16:45;8.20;97.60
16929;DHT22;8581;47.334;11.190;2023-12-28T13:19:16;8.10;98.20
16929;DHT22;8581;47.334;11.190;2023-12-28T13:21:48;8.40;99.50
16929;DHT22;8581;47.334;11.190;2023-12-28T13:24:19;8.70;98.20
16929;DHT22;8581;47.334;11.190;2023-12-28T13:26:51;8.80;98.70
16929;DHT22;8581;47.334;11.190;2023-12-28T13:29:23;8.90;97.50
16929;DHT22;8581;47.334;11.190;2023-12-28T13:31:54;8.80;97.30
16929;DHT22;8581;47.334;11.190;2023-12-28T13:34:26;8.80;97.30
16929;DHT22;8581;47.334;11.190;2023-12-28T13:36:58;8.50;96.60
16929;DHT22;8581;47.334;11.190;2023-12-28T13:39:29;8.20;97.30
16929;DHT22;8581;47.334;11.190;2023-12-28T13:42:01;8.00;97.50
16929;DHT22;8581;47.334;11.190;2023-12-28T13:44:34;7.50;98.50
16929;DHT22;8581;47.334;11.190;2023-12-28T13:47:05;7.50;99.90
16929;DHT22;8581;47.334;11.190;2023-12-28T13:49:37;7.50;99.90
16929;DHT22;8581;47.334;11.190;2023-12-28T13:52:09;7.20;99.90
16929;DHT22;8581;47.334;11.190;2023-12-28T13:54:40;6.80;99.90
16929;DHT22;8581;47.334;11.190;2023-12-28T13:57:12;6.50;99.90
16929;DHT22;8581;47.334;11.190;2023-12-28T13:59:44;6.60;99.90
16929;DHT22;8581;47.334;11.190;2023-12-28T14:02:15;6.70;99.90
16929;DHT22;8581;47.334;11.190;2023-12-28T14:04:47;6.70;99.90
16929;DHT22;8581;47.334;11.190;2023-12-28T14:07:18;6.70;99.90
16929;DHT22;8581;47.334;11.190;2023-12-28T14:09:50;6.70;99.90
16929;DHT22;8581;47.334;11.190;2023-12-28T14:12:22;6.50;99.90
16929;DHT22;8581;47.334;11.190;2023-12-28T14:14:53;6.50;99.90
16929;DHT22;8581;47.334;11.190;2023-12-28T14:17:25;6.50;99.90
16929;DHT22;8581;47.334;11.190;2023-12-28T14:19:57;6.50;99.90
16929;DHT22;8581;47.334;11.190;2023-12-28T14:22:29;6.50;99.90
16929;DHT22;8581;47.334;11.190;2023-12-28T14:25:01;6.70;99.90
16929;DHT22;8581;47.334;11.190;2023-12-28T14:27:33;6.40;99.90
16929;DHT22;8581;47.334;11.190;2023-12-28T14:30:06;6.10;99.90
16929;DHT22;8581;47.334;11.190;2023-12-28T14:32:39;6.10;99.90
16929;DHT22;8581;47.334;11.190;2023-12-28T14:35:11;6.30;99.90
16929;DHT22;8581;47.334;11.190;2023-12-28T14:37:44;6.20;99.90
16929;DHT22;8581;47.334;11.190;2023-12-28T14:40:15;6.30;99.90
16929;DHT22;8581;47.334;11.190;2023-12-28T14:42:47;6.20;99.90
16929;DHT22;8581;47.334;11.190;2023-12-28T14:45:19;6.00;99.90
16929;DHT22;8581;47.334;11.190;2023-12-28T14:47:50;5.90;99.90
16929;DHT22;8581;47.334;11.190;2023-12-28T14:50:22;6.00;99.90
16929;DHT22;8581;47.334;11.190;2023-12-28T14:52:53;5.80;99.90
16929;DHT22;8581;47.334;11.190;2023-12-28T14:55:25;5.60;99.90
16929;DHT22;8581;47.334;11.190;2023-12-28T14:57:57;5.70;99.90
16929;DHT22;8581;47.334;11.190;2023-12-28T15:00:28;5.60;99.90
16929;DHT22;8581;47.334;11.190;2023-12-28T15:03:00;5.70;99.90
16929;DHT22;8581;47.334;11.190;2023-12-28T15:05:32;5.70;99.90
16929;DHT22;8581;47.334;11.190;2023-12-28T15:08:04;5.60;99.90
16929;DHT22;8581;47.334;11.190;2023-12-28T15:10:37;5.50;99.90
16929;DHT22;8581;47.334;11.190;2023-12-28T15:13:09;5.40;99.90
16929;DHT22;8581;47.334;11.190;2023-12-28T15:15:41;5.40;99.90
16929;DHT22;8581;47.334;11.190;2023-12-28T15:18:14;5.40;99.90
16929;DHT22;8581;47.334;11.190;2023-12-28T15:20:46;5.30;99.90
16929;DHT22;8581;47.334;11.190;2023-12-28T15:23:19;5.20;99.90
16929;DHT22;8581;47.334;11.190;2023-12-28T15:25:51;5.20;99.90
16929;DHT22;8581;47.334;11.190;2023-12-28T15:28:22;5.10;99.90
16929;DHT22;8581;47.334;11.190;2023-12-28T15:30:54;5.00;99.90
16929;DHT22;8581;47.334;11.190;2023-12-28T15:33:26;5.00;99.90
16929;DHT22;8581;47.334;11.190;2023-12-28T15:35:57;5.00;99.90
16929;DHT22;8581;47.334;11.190;2023-12-28T15:38:29;4.90;99.90
16929;DHT22;8581;47.334;11.190;2023-12-28T15:41:00;4.80;99.90
16929;DHT22;8581;47.334;11.190;2023-12-28T15:43:32;5.00;99.90
16929;DHT22;8581;47.334;11.190;2023-12-28T15:46:04;5.00;99.90
16929;DHT22;8581;47.334;11.190;2023-12-28T15:48:35;4.90;99.90
16929;DHT22;8581;47.334;11.190;2023-12-28T15:51:08;4.90;99.90
16929;DHT22;8581;47.334;11.190;2023-12-28T15:53:39;4.80;99.90
16929;DHT22;8581;47.334;11.190;2023-12-28T15:56:11;4.80;99.90
16929;DHT22;8581;47.334;11.190;2023-12-28T15:58:43;4.80;99.90
16929;DHT22;8581;47.334;11.190;2023-12-28T16:01:14;4.70;99.90
16929;DHT22;8581;47.334;11.190;2023-12-28T16:03:51;4.80;99.90
16929;DHT22;8581;47.334;11.190;2023-12-28T16:06:22;4.70;99.90
16929;DHT22;8581;47.334;11.190;2023-12-28T16:08:54;4.40;99.90